Historique des stations

Station météo de Chassignolles

Altitude de la station : 290 m







Données météorologiques pour le 20/06/2021
Date
Heure
Températures Humidité Point de rosée Vitesse
du vent
Direction Rafales Windchill Pression Pluviométrie
Cumul
Date
Heure
Températures Humidité Point de rosée Vitesse
du vent
Direction Rafales Windchill Pression Pluviométrie
Cumul
20/06/2021 09:2916.4 °C92 %15.0 °C5 km/hSSO10 km/h16.7 1012 hPa3.2 mm
20/06/2021 09:1416.6 °C92 %15.6 °C6 km/hSSO10 km/h16.7 1011 hPa2.6 mm
20/06/2021 08:5916.8 °C92 %15.6 °C3 km/hO13 km/h16.7 1011 hPa1.4 mm
20/06/2021 08:4417.2 °C91 %15.6 °C3 km/hO6 km/h17.2 1009 hPa0.2 mm
20/06/2021 08:2917.2 °C90 %15.6 °C2 km/hNNE8 km/h17.2 1009 hPa0.2 mm
20/06/2021 08:1417.3 °C91 %16.1 °C2 km/hN6 km/h17.2 1008 hPa0.2 mm
20/06/2021 07:5916.9 °C93 %15.6 °C2 km/hNNE6 km/h16.7 1009 hPa0.2 mm
20/06/2021 07:4416.4 °C93 %15.6 °C2 km/hN5 km/h16.7 1008 hPa0.2 mm
20/06/2021 07:2916.1 °C94 %15.0 °C2 km/hN3 km/h16.1 1009 hPa0.2 mm
20/06/2021 07:1415.7 °C93 %14.4 °C2 km/hN3 km/h15.6 1009 hPa0.2 mm
20/06/2021 06:5915.8 °C93 %15.0 °C-N5 km/h16.1 1009 hPa0.2 mm
20/06/2021 06:4415.9 °C93 %15.0 °C2 km/hN5 km/h16.1 1009 hPa0.2 mm
20/06/2021 06:2915.8 °C93 %15.0 °C2 km/hN5 km/h16.1 1009 hPa0.2 mm
20/06/2021 06:1416.0 °C93 %15.0 °C3 km/hN5 km/h16.1 1010 hPa-
20/06/2021 05:5916.0 °C93 %15.0 °C-N3 km/h16.1 1010 hPa-
20/06/2021 05:4415.9 °C93 %15.0 °C-N3 km/h16.1 1010 hPa-
20/06/2021 05:2916.1 °C93 %15.0 °C3 km/hNNE3 km/h16.1 1010 hPa-
20/06/2021 05:1416.2 °C93 %15.0 °C2 km/hN2 km/h16.1 1010 hPa-
20/06/2021 04:5916.2 °C92 %15.0 °C2 km/hN5 km/h16.1 1010 hPa-
20/06/2021 04:4416.3 °C92 %15.0 °C3 km/hNNE3 km/h16.1 1010 hPa-
20/06/2021 04:2916.4 °C92 %15.0 °C2 km/hNNE3 km/h16.7 1010 hPa-
20/06/2021 04:1416.6 °C91 %15.0 °C2 km/hN3 km/h16.7 1011 hPa-
20/06/2021 03:5916.7 °C91 %15.6 °C-N2 km/h16.7 1011 hPa-
20/06/2021 03:4516.9 °C90 %15.6 °C2 km/hN3 km/h17.2 1011 hPa-
20/06/2021 03:3017.2 °C90 %15.6 °C3 km/hN5 km/h17.2 1011 hPa-
20/06/2021 03:1517.3 °C90 %15.6 °C5 km/hN10 km/h17.2 1011 hPa-
20/06/2021 03:0017.3 °C90 %15.6 °C6 km/hN10 km/h17.2 1011 hPa-
20/06/2021 02:4517.3 °C91 %16.1 °C6 km/hN13 km/h17.2 1011 hPa-
20/06/2021 02:3017.2 °C91 %15.6 °C8 km/hN13 km/h17.2 1012 hPa-
20/06/2021 02:1517.2 °C92 %16.1 °C6 km/hN8 km/h17.2 1012 hPa-
20/06/2021 02:0017.2 °C91 %15.6 °C5 km/hN10 km/h17.2 1012 hPa-
20/06/2021 01:4517.2 °C92 %16.1 °C5 km/hN10 km/h17.2 1012 hPa-
20/06/2021 01:3017.2 °C92 %16.1 °C5 km/hN10 km/h17.2 1012 hPa-
20/06/2021 01:1517.3 °C91 %16.1 °C6 km/hN10 km/h17.2 1011 hPa-
20/06/2021 01:0017.4 °C91 %16.1 °C3 km/hN10 km/h17.2 1012 hPa-
20/06/2021 00:4517.6 °C91 %16.1 °C6 km/hN13 km/h17.8 1011 hPa-
20/06/2021 00:3017.7 °C91 %16.1 °C5 km/hN13 km/h17.8 1012 hPa-
20/06/2021 00:1517.7 °C91 %16.1 °C5 km/hNNE14 km/h17.8 1012 hPa-
20/06/2021 00:0017.7 °C92 %16.7 °C5 km/hN10 km/h17.8 1012 hPa-


Minima :

Température : 15.7 °C
Humidité : 90 %
Point de rosée : 14.4 °C
Vent moyen : 2 km/h
Windchill : 15.6
Pression atm. : 1008 hPa
Maxima :

Température : 17.7 °C
Humidité : 94 %
Point de rosée : 16.7 °C
Vent moyen : 8 km/h
Windchill : 17.8
Pression atm. : 1012 hPa
Rafales max : 14 km/h
Cumul de pluie sur 24H : 3.2 mm

Chassignolles est une commune du département Indre (36).
La station météorologique du réseau de l'association la plus proche de Chassignolles est celle de Beddes



Icône Facebook Association Météo Centre Icône Twitter Association Météo Centre Icône Chaîne Youtube Association Météo Centre Icône contact Association Météo Centre Icône Insta Association Météo Centre